Wetmore, Colorado
Current Conditions -  °F | °C
As of 1:15 AM on Thursday 27 Nov 2014 (Local Time) from K1V6 Reporting Station
Clear Clear  
Wind Chill: 24°   Ceiling: Unl
Heat Index: 32°   Visibility: 10mi
Dew Point: 27°   Wind: 9mph
Humidity: 80%   Direction: 260°W
Pressure: 30.31"   Gusts: NA
Location:  38.24°N, 105.09°W
Report Text: K1V6 270815Z AUTO 26008KT 10SM CLR 00/M03 A3031 RMK AO2
Loading
Personal Weather Stations






























Interactive Weather Map New forecast layout! Learn more

10-Day Weather Forecast

Advertisements
Track Severe Weather on mobile